Aviation Digital Data Service (ADDS)

Output produced by METARs form (0323 UTC 18 June 2019)
found at http://www.aviationweather.gov/metar/data/
 
METAR text: CYFB 180300Z VRB02KT 30SM FEW050 FEW150 SCT250 04/02 A3002 RMK SC1AC2CI1 SC TR SLP171
Conditions at: CYFB (FROBISHER/IQALUI, NU, CA) observed 0300 UTC 18 June 2019
Temperature: 4.0°C (39°F)
Dewpoint: 2.0°C (36°F) [RH = 87%]
Pressure (altimeter): 30.02 inches Hg (1016.7 mb)
[Sea-level pressure: 1017.1 mb]
Winds: variable direction winds at 2 MPH (2 knots; 1.0 m/s)
Visibility: 30 miles (48 km)
Ceiling: at least 12,000 feet AGL
Clouds: few clouds at 5000 feet AGL
few clouds at 15000 feet AGL
scattered clouds at 25000 feet AGL
Weather: no significant weather observed at this time

METAR text: CYFB 180200Z 25004KT 200V260 30SM FEW050 SCT150 SCT250 04/02 A3002 RMK SC1AC2CI1 SLP171
Conditions at: CYFB (FROBISHER/IQALUI, NU, CA) observed 0200 UTC 18 June 2019
Temperature: 4.0°C (39°F)
Dewpoint: 2.0°C (36°F) [RH = 87%]
Pressure (altimeter): 30.02 inches Hg (1016.7 mb)
[Sea-level pressure: 1017.1 mb]
Winds: from the WSW (250 degrees) at 5 MPH (4 knots; 2.1 m/s)
Visibility: 30 miles (48 km)
Ceiling: at least 12,000 feet AGL
Clouds: few clouds at 5000 feet AGL
scattered clouds at 15000 feet AGL
scattered clouds at 25000 feet AGL
Weather: no significant weather observed at this time

METAR text: CYFB 180100Z 00000KT 30SM FEW010 FEW050 FEW120 BKN250 04/02 A3002 RMK SC1SC1AC1CI3 SC TR SLP169
Conditions at: CYFB (FROBISHER/IQALUI, NU, CA) observed 0100 UTC 18 June 2019
Temperature: 4.0°C (39°F)
Dewpoint: 2.0°C (36°F) [RH = 87%]
Pressure (altimeter): 30.02 inches Hg (1016.7 mb)
[Sea-level pressure: 1016.9 mb]
Winds: calm
Visibility: 30 miles (48 km)
Ceiling: 25000 feet AGL
Clouds: few clouds at 1000 feet AGL
few clouds at 5000 feet AGL
few clouds at 12000 feet AGL
broken clouds at 25000 feet AGL
Weather: no significant weather observed at this time

METAR text: CYFB 180000Z 00000KT 30SM FEW010 FEW050 BKN250 04/02 A3003 RMK SC1SC2CI4 SC TR SLP173
Conditions at: CYFB (FROBISHER/IQALUI, NU, CA) observed 0000 UTC 18 June 2019
Temperature: 4.0°C (39°F)
Dewpoint: 2.0°C (36°F) [RH = 87%]
Pressure (altimeter): 30.03 inches Hg (1017.0 mb)
[Sea-level pressure: 1017.3 mb]
Winds: calm
Visibility: 30 miles (48 km)
Ceiling: 25000 feet AGL
Clouds: few clouds at 1000 feet AGL
few clouds at 5000 feet AGL
broken clouds at 25000 feet AGL
Weather: no significant weather observed at this time

METAR text: CYFB 172300Z 17006KT 30SM FEW010 FEW050 BKN250 05/02 A3004 RMK SC1SC1CI4 SC TR SLP176
Conditions at: CYFB (FROBISHER/IQALUI, NU, CA) observed 2300 UTC 17 June 2019
Temperature: 5.0°C (41°F)
Dewpoint: 2.0°C (36°F) [RH = 81%]
Pressure (altimeter): 30.04 inches Hg (1017.4 mb)
[Sea-level pressure: 1017.6 mb]
Winds: from the S (170 degrees) at 7 MPH (6 knots; 3.1 m/s)
Visibility: 30 miles (48 km)
Ceiling: 25000 feet AGL
Clouds: few clouds at 1000 feet AGL
few clouds at 5000 feet AGL
broken clouds at 25000 feet AGL
Weather: no significant weather observed at this time

METAR text: CYFB 172200Z 17006KT 130V220 30SM FEW010 BKN250 06/03 A3003 RMK SC1CI4 SLP174
Conditions at: CYFB (FROBISHER/IQALUI, NU, CA) observed 2200 UTC 17 June 2019
Temperature: 6.0°C (43°F)
Dewpoint: 3.0°C (37°F) [RH = 81%]
Pressure (altimeter): 30.03 inches Hg (1017.0 mb)
[Sea-level pressure: 1017.4 mb]
Winds: from the S (170 degrees) at 7 MPH (6 knots; 3.1 m/s)
Visibility: 30 miles (48 km)
Ceiling: 25000 feet AGL
Clouds: few clouds at 1000 feet AGL
broken clouds at 25000 feet AGL
Weather: no significant weather observed at this time

METAR text: CYFB 172100Z 16008G16KT 30SM FEW010 SCT250 05/02 A3003 RMK SC1CI4 SC TR SLP173
Conditions at: CYFB (FROBISHER/IQALUI, NU, CA) observed 2100 UTC 17 June 2019
Temperature: 5.0°C (41°F)
Dewpoint: 2.0°C (36°F) [RH = 81%]
Pressure (altimeter): 30.03 inches Hg (1017.0 mb)
[Sea-level pressure: 1017.3 mb]
Winds: from the SSE (160 degrees) at 9 MPH (8 knots; 4.1 m/s)
gusting to 18 MPH (16 knots; 8.2 m/s)
Visibility: 30 miles (48 km)
Ceiling: at least 12,000 feet AGL
Clouds: few clouds at 1000 feet AGL
scattered clouds at 25000 feet AGL
Weather: no significant weather observed at this time

METAR text: CYFB 172000Z 15010KT 30SM FEW010 SCT250 05/02 A3003 RMK SC1CI4 SC TR SLP174
Conditions at: CYFB (FROBISHER/IQALUI, NU, CA) observed 2000 UTC 17 June 2019
Temperature: 5.0°C (41°F)
Dewpoint: 2.0°C (36°F) [RH = 81%]
Pressure (altimeter): 30.03 inches Hg (1017.0 mb)
[Sea-level pressure: 1017.4 mb]
Winds: from the SSE (150 degrees) at 12 MPH (10 knots; 5.1 m/s)
Visibility: 30 miles (48 km)
Ceiling: at least 12,000 feet AGL
Clouds: few clouds at 1000 feet AGL
scattered clouds at 25000 feet AGL
Weather: no significant weather observed at this time

METAR text: CYFB 171900Z 15007KT 30SM FEW010 BKN250 05/02 A3003 RMK SC1CI4 SLP174
Conditions at: CYFB (FROBISHER/IQALUI, NU, CA) observed 1900 UTC 17 June 2019
Temperature: 5.0°C (41°F)
Dewpoint: 2.0°C (36°F) [RH = 81%]
Pressure (altimeter): 30.03 inches Hg (1017.0 mb)
[Sea-level pressure: 1017.4 mb]
Winds: from the SSE (150 degrees) at 8 MPH (7 knots; 3.6 m/s)
Visibility: 30 miles (48 km)
Ceiling: 25000 feet AGL
Clouds: few clouds at 1000 feet AGL
broken clouds at 25000 feet AGL
Weather: no significant weather observed at this time

METAR text: CYFB 171800Z 16008KT 30SM FEW005 FEW010 SCT016 BKN250 04/02 A3004 RMK SF1SC1SC2CI3 SF TR SLP176
Conditions at: CYFB (FROBISHER/IQALUI, NU, CA) observed 1800 UTC 17 June 2019
Temperature: 4.0°C (39°F)
Dewpoint: 2.0°C (36°F) [RH = 87%]
Pressure (altimeter): 30.04 inches Hg (1017.4 mb)
[Sea-level pressure: 1017.6 mb]
Winds: from the SSE (160 degrees) at 9 MPH (8 knots; 4.1 m/s)
Visibility: 30 miles (48 km)
Ceiling: 25000 feet AGL
Clouds: few clouds at 500 feet AGL
few clouds at 1000 feet AGL
scattered clouds at 1600 feet AGL
broken clouds at 25000 feet AGL
Weather: no significant weather observed at this time

METAR text: CYFB 171741Z 15009KT 30SM FEW005 FEW010 SCT016 BKN250 05/03 A3004 RMK SF1SC1SC2CI3 SF TR SLP177
Conditions at: CYFB (FROBISHER/IQALUI, NU, CA) observed 1741 UTC 17 June 2019
Temperature: 5.0°C (41°F)
Dewpoint: 3.0°C (37°F) [RH = 87%]
Pressure (altimeter): 30.04 inches Hg (1017.4 mb)
[Sea-level pressure: 1017.7 mb]
Winds: from the SSE (150 degrees) at 10 MPH (9 knots; 4.6 m/s)
Visibility: 30 miles (48 km)
Ceiling: 25000 feet AGL
Clouds: few clouds at 500 feet AGL
few clouds at 1000 feet AGL
scattered clouds at 1600 feet AGL
broken clouds at 25000 feet AGL
Weather: no significant weather observed at this time

METAR text: CYFB 171700Z 16009KT 30SM FEW005 SCT010 BKN016 04/03 A3005 RMK SF1SC3SC3 SLP180
Conditions at: CYFB (FROBISHER/IQALUI, NU, CA) observed 1700 UTC 17 June 2019
Temperature: 4.0°C (39°F)
Dewpoint: 3.0°C (37°F) [RH = 93%]
Pressure (altimeter): 30.05 inches Hg (1017.7 mb)
[Sea-level pressure: 1018.0 mb]
Winds: from the SSE (160 degrees) at 10 MPH (9 knots; 4.6 m/s)
Visibility: 30 miles (48 km)
Ceiling: 1600 feet AGL
Clouds: few clouds at 500 feet AGL
scattered clouds at 1000 feet AGL
broken clouds at 1600 feet AGL
Weather: no significant weather observed at this time

METAR text: CYFB 171642Z 16008KT 30SM FEW005 BKN010 BKN016 04/02 A3005 RMK SF1ST5SC2 SF TR SLP180
Conditions at: CYFB (FROBISHER/IQALUI, NU, CA) observed 1642 UTC 17 June 2019
Temperature: 4.0°C (39°F)
Dewpoint: 2.0°C (36°F) [RH = 87%]
Pressure (altimeter): 30.05 inches Hg (1017.7 mb)
[Sea-level pressure: 1018.0 mb]
Winds: from the SSE (160 degrees) at 9 MPH (8 knots; 4.1 m/s)
Visibility: 30 miles (48 km)
Ceiling: 1000 feet AGL
Clouds: few clouds at 500 feet AGL
broken clouds at 1000 feet AGL
broken clouds at 1600 feet AGL
Weather: no significant weather observed at this time

METAR text: CYFB 171600Z 13005KT 20SM FEW005 BKN009 OVC015 03/02 A3005 RMK SF2ST3SC3 SLP179
Conditions at: CYFB (FROBISHER/IQALUI, NU, CA) observed 1600 UTC 17 June 2019
Temperature: 3.0°C (37°F)
Dewpoint: 2.0°C (36°F) [RH = 93%]
Pressure (altimeter): 30.05 inches Hg (1017.7 mb)
[Sea-level pressure: 1017.9 mb]
Winds: from the SE (130 degrees) at 6 MPH (5 knots; 2.6 m/s)
Visibility: 20 miles (32 km)
Ceiling: 900 feet AGL
Clouds: few clouds at 500 feet AGL
broken clouds at 900 feet AGL
overcast cloud deck at 1500 feet AGL
Weather: no significant weather observed at this time

METAR text: CYFB 171549Z 13005KT 10SM FEW005 OVC009 OVC022 03/02 A3005 RMK SF2ST6SC1 SC TR SLP180
Conditions at: CYFB (FROBISHER/IQALUI, NU, CA) observed 1549 UTC 17 June 2019
Temperature: 3.0°C (37°F)
Dewpoint: 2.0°C (36°F) [RH = 93%]
Pressure (altimeter): 30.05 inches Hg (1017.7 mb)
[Sea-level pressure: 1018.0 mb]
Winds: from the SE (130 degrees) at 6 MPH (5 knots; 2.6 m/s)
Visibility: 10 or more miles (16+ km)
Ceiling: 900 feet AGL
Clouds: few clouds at 500 feet AGL
overcast cloud deck at 900 feet AGL
overcast cloud deck at 2200 feet AGL
Weather: no significant weather observed at this time

METAR text: CYFB 171500Z 15005KT 6SM BR OVC005 02/01 A3005 RMK ST8 SLP180
Conditions at: CYFB (FROBISHER/IQALUI, NU, CA) observed 1500 UTC 17 June 2019
Temperature: 2.0°C (36°F)
Dewpoint: 1.0°C (34°F) [RH = 93%]
Pressure (altimeter): 30.05 inches Hg (1017.7 mb)
[Sea-level pressure: 1018.0 mb]
Winds: from the SSE (150 degrees) at 6 MPH (5 knots; 2.6 m/s)
Visibility: 6 miles (10 km)
Ceiling: 500 feet AGL
Clouds: overcast cloud deck at 500 feet AGL
Weather: BR  (mist)

METAR text: CYFB 171430Z 15005KT 4SM BR OVC003 02/01 A3005 RMK ST8 SLP181
Conditions at: CYFB (FROBISHER/IQALUI, NU, CA) observed 1430 UTC 17 June 2019
Temperature: 2.0°C (36°F)
Dewpoint: 1.0°C (34°F) [RH = 93%]
Pressure (altimeter): 30.05 inches Hg (1017.7 mb)
[Sea-level pressure: 1018.1 mb]
Winds: from the SSE (150 degrees) at 6 MPH (5 knots; 2.6 m/s)
Visibility: 4 miles ( 6 km)
Ceiling: 300 feet AGL
Clouds: overcast cloud deck at 300 feet AGL
Weather: BR  (mist)

METAR text: CYFB 171418Z 13005KT 5SM BR BKN004 OVC009 02/01 A3006 RMK ST5ST3 SLP182
Conditions at: CYFB (FROBISHER/IQALUI, NU, CA) observed 1418 UTC 17 June 2019
Temperature: 2.0°C (36°F)
Dewpoint: 1.0°C (34°F) [RH = 93%]
Pressure (altimeter): 30.06 inches Hg (1018.0 mb)
[Sea-level pressure: 1018.2 mb]
Winds: from the SE (130 degrees) at 6 MPH (5 knots; 2.6 m/s)
Visibility: 5 miles ( 8 km)
Ceiling: 400 feet AGL
Clouds: broken clouds at 400 feet AGL
overcast cloud deck at 900 feet AGL
Weather: BR  (mist)

METAR text: CYFB 171400Z 13005KT 6SM BR SCT005 OVC009 02/02 A3005 RMK SF4ST4 SLP181
Conditions at: CYFB (FROBISHER/IQALUI, NU, CA) observed 1400 UTC 17 June 2019
Temperature: 2.0°C (36°F)
Dewpoint: 2.0°C (36°F) [RH = 100%]
Pressure (altimeter): 30.05 inches Hg (1017.7 mb)
[Sea-level pressure: 1018.1 mb]
Winds: from the SE (130 degrees) at 6 MPH (5 knots; 2.6 m/s)
Visibility: 6 miles (10 km)
Ceiling: 900 feet AGL
Clouds: scattered clouds at 500 feet AGL
overcast cloud deck at 900 feet AGL
Weather: BR  (mist)

METAR text: CYFB 171336Z 16007KT 6SM BR SCT005 OVC009 02/02 A3005 RMK SF4ST4 SLP181
Conditions at: CYFB (FROBISHER/IQALUI, NU, CA) observed 1336 UTC 17 June 2019
Temperature: 2.0°C (36°F)
Dewpoint: 2.0°C (36°F) [RH = 100%]
Pressure (altimeter): 30.05 inches Hg (1017.7 mb)
[Sea-level pressure: 1018.1 mb]
Winds: from the SSE (160 degrees) at 8 MPH (7 knots; 3.6 m/s)
Visibility: 6 miles (10 km)
Ceiling: 900 feet AGL
Clouds: scattered clouds at 500 feet AGL
overcast cloud deck at 900 feet AGL
Weather: BR  (mist)

METAR text: CYFB 171300Z 14005KT 6SM BR BKN005 OVC009 02/02 A3005 RMK SF5ST3 SLP181
Conditions at: CYFB (FROBISHER/IQALUI, NU, CA) observed 1300 UTC 17 June 2019
Temperature: 2.0°C (36°F)
Dewpoint: 2.0°C (36°F) [RH = 100%]
Pressure (altimeter): 30.05 inches Hg (1017.7 mb)
[Sea-level pressure: 1018.1 mb]
Winds: from the SE (140 degrees) at 6 MPH (5 knots; 2.6 m/s)
Visibility: 6 miles (10 km)
Ceiling: 500 feet AGL
Clouds: broken clouds at 500 feet AGL
overcast cloud deck at 900 feet AGL
Weather: BR  (mist)

METAR text: CYFB 171250Z 14007KT 6SM BR BKN005 OVC009 02/02 A3005 RMK SF5ST3 SLP181
Conditions at: CYFB (FROBISHER/IQALUI, NU, CA) observed 1250 UTC 17 June 2019
Temperature: 2.0°C (36°F)
Dewpoint: 2.0°C (36°F) [RH = 100%]
Pressure (altimeter): 30.05 inches Hg (1017.7 mb)
[Sea-level pressure: 1018.1 mb]
Winds: from the SE (140 degrees) at 8 MPH (7 knots; 3.6 m/s)
Visibility: 6 miles (10 km)
Ceiling: 500 feet AGL
Clouds: broken clouds at 500 feet AGL
overcast cloud deck at 900 feet AGL
Weather: BR  (mist)

METAR text: CYFB 171221Z 14005KT 3SM -DZ BR OVC003 02/02 A3005 RMK FG2ST6 VIS VRB 2-4 CIG VRB 002-004 SLP181
Conditions at: CYFB (FROBISHER/IQALUI, NU, CA) observed 1221 UTC 17 June 2019
Temperature: 2.0°C (36°F)
Dewpoint: 2.0°C (36°F) [RH = 100%]
Pressure (altimeter): 30.05 inches Hg (1017.7 mb)
[Sea-level pressure: 1018.1 mb]
Winds: from the SE (140 degrees) at 6 MPH (5 knots; 2.6 m/s)
Visibility: 3 miles ( 5 km)
Ceiling: 300 feet AGL
Clouds: overcast cloud deck at 300 feet AGL
Weather: -DZ BR  (light drizzle, mist)

METAR text: CYFB 171200Z 15008KT 3SM -DZ BR OVC005 02/02 A3005 RMK FG1ST7 VIS VRB 2-4 SLP181
Conditions at: CYFB (FROBISHER/IQALUI, NU, CA) observed 1200 UTC 17 June 2019
Temperature: 2.0°C (36°F)
Dewpoint: 2.0°C (36°F) [RH = 100%]
Pressure (altimeter): 30.05 inches Hg (1017.7 mb)
[Sea-level pressure: 1018.1 mb]
Winds: from the SSE (150 degrees) at 9 MPH (8 knots; 4.1 m/s)
Visibility: 3 miles ( 5 km)
Ceiling: 500 feet AGL
Clouds: overcast cloud deck at 500 feet AGL
Weather: -DZ BR  (light drizzle, mist)

METAR text: CYFB 171143Z 15005KT 110V180 3SM -DZ BR OVC003 02/02 A3005 RMK FG1ST7 VIS VRB 2-4 SLP181
Conditions at: CYFB (FROBISHER/IQALUI, NU, CA) observed 1143 UTC 17 June 2019
Temperature: 2.0°C (36°F)
Dewpoint: 2.0°C (36°F) [RH = 100%]
Pressure (altimeter): 30.05 inches Hg (1017.7 mb)
[Sea-level pressure: 1018.1 mb]
Winds: from the SSE (150 degrees) at 6 MPH (5 knots; 2.6 m/s)
Visibility: 3 miles ( 5 km)
Ceiling: 300 feet AGL
Clouds: overcast cloud deck at 300 feet AGL
Weather: -DZ BR  (light drizzle, mist)

METAR text: CYFB 171100Z 13005KT 2SM -DZ BR OVC003 02/02 A3005 RMK ST8 VIS VRB 11/2-21/2 CIG VRB 2-4 SLP179
Conditions at: CYFB (FROBISHER/IQALUI, NU, CA) observed 1100 UTC 17 June 2019
Temperature: 2.0°C (36°F)
Dewpoint: 2.0°C (36°F) [RH = 100%]
Pressure (altimeter): 30.05 inches Hg (1017.7 mb)
[Sea-level pressure: 1017.9 mb]
Winds: from the SE (130 degrees) at 6 MPH (5 knots; 2.6 m/s)
Visibility: 2.00 miles (3.22 km)
Ceiling: 300 feet AGL
Clouds: overcast cloud deck at 300 feet AGL
Weather: -DZ BR  (light drizzle, mist)

METAR text: CYFB 171044Z 13004KT 100V160 1 1/2SM -DZ BR OVC003 02/02 A3005 RMK ST8 VIS VRB 1-2 CIG VRB 2-4 SLP178
Conditions at: CYFB (FROBISHER/IQALUI, NU, CA) observed 1044 UTC 17 June 2019
Temperature: 2.0°C (36°F)
Dewpoint: 2.0°C (36°F) [RH = 100%]
Pressure (altimeter): 30.05 inches Hg (1017.7 mb)
[Sea-level pressure: 1017.8 mb]
Winds: from the SE (130 degrees) at 5 MPH (4 knots; 2.1 m/s)
Visibility: 1.50 miles (2.41 km)
Ceiling: 300 feet AGL
Clouds: overcast cloud deck at 300 feet AGL
Weather: -DZ BR  (light drizzle, mist)

METAR text: CYFB 171005Z 16004KT 1SM R34/3000V5500FT/D BR VV003 02/02 A3005 RMK FG8 CIG VRB 2-4 INTMT -DZ SLP178
Conditions at: CYFB (FROBISHER/IQALUI, NU, CA) observed 1005 UTC 17 June 2019
Temperature: 2.0°C (36°F)
Dewpoint: 2.0°C (36°F) [RH = 100%]
Pressure (altimeter): 30.05 inches Hg (1017.7 mb)
[Sea-level pressure: 1017.8 mb]
Winds: from the SSE (160 degrees) at 5 MPH (4 knots; 2.1 m/s)
Visibility: 1.00 miles (1.61 km)
Ceiling: indefinite ceiling with vertical visibility of 300 feet AGL
Clouds: obscured sky
Weather: BR  (mist)

METAR text: CYFB 171000Z 16004KT 3SM R34/4000VP6000FT/D -DZ BR OVC003 02/02 A3004 RMK ST8 CIG VRB 2-4 SLP177
Conditions at: CYFB (FROBISHER/IQALUI, NU, CA) observed 1000 UTC 17 June 2019
Temperature: 2.0°C (36°F)
Dewpoint: 2.0°C (36°F) [RH = 100%]
Pressure (altimeter): 30.04 inches Hg (1017.4 mb)
[Sea-level pressure: 1017.7 mb]
Winds: from the SSE (160 degrees) at 5 MPH (4 knots; 2.1 m/s)
Visibility: 3 miles ( 5 km)
Ceiling: 300 feet AGL
Clouds: overcast cloud deck at 300 feet AGL
Weather: -DZ BR  (light drizzle, mist)

METAR text: CYFB 170930Z VRB02KT 3SM -DZ BR OVC003 02/01 A3004 RMK ST8 CIG VRB 2-4 SLP176
Conditions at: CYFB (FROBISHER/IQALUI, NU, CA) observed 0930 UTC 17 June 2019
Temperature: 2.0°C (36°F)
Dewpoint: 1.0°C (34°F) [RH = 93%]
Pressure (altimeter): 30.04 inches Hg (1017.4 mb)
[Sea-level pressure: 1017.6 mb]
Winds: variable direction winds at 2 MPH (2 knots; 1.0 m/s)
Visibility: 3 miles ( 5 km)
Ceiling: 300 feet AGL
Clouds: overcast cloud deck at 300 feet AGL
Weather: -DZ BR  (light drizzle, mist)

METAR text: CYFB 170900Z 16005KT 5SM -DZ BR OVC005 01/01 A3004 RMK ST8 CIG VRB 4-6 SLP176
Conditions at: CYFB (FROBISHER/IQALUI, NU, CA) observed 0900 UTC 17 June 2019
Temperature: 1.0°C (34°F)
Dewpoint: 1.0°C (34°F) [RH = 100%]
Pressure (altimeter): 30.04 inches Hg (1017.4 mb)
[Sea-level pressure: 1017.6 mb]
Winds: from the SSE (160 degrees) at 6 MPH (5 knots; 2.6 m/s)
Visibility: 5 miles ( 8 km)
Ceiling: 500 feet AGL
Clouds: overcast cloud deck at 500 feet AGL
Weather: -DZ BR  (light drizzle, mist)

METAR text: CYFB 170800Z 13005KT 8SM -DZ OVC007 02/01 A3004 RMK ST8 SLP175
Conditions at: CYFB (FROBISHER/IQALUI, NU, CA) observed 0800 UTC 17 June 2019
Temperature: 2.0°C (36°F)
Dewpoint: 1.0°C (34°F) [RH = 93%]
Pressure (altimeter): 30.04 inches Hg (1017.4 mb)
[Sea-level pressure: 1017.5 mb]
Winds: from the SE (130 degrees) at 6 MPH (5 knots; 2.6 m/s)
Visibility: 8 miles (13 km)
Ceiling: 700 feet AGL
Clouds: overcast cloud deck at 700 feet AGL
Weather: -DZ  (light drizzle)

METAR text: CYFB 170700Z 15003KT 15SM -DZ BKN007 OVC013 02/01 A3004 RMK SF5SC3 SLP176
Conditions at: CYFB (FROBISHER/IQALUI, NU, CA) observed 0700 UTC 17 June 2019
Temperature: 2.0°C (36°F)
Dewpoint: 1.0°C (34°F) [RH = 93%]
Pressure (altimeter): 30.04 inches Hg (1017.4 mb)
[Sea-level pressure: 1017.6 mb]
Winds: from the SSE (150 degrees) at 3 MPH (3 knots; 1.5 m/s)
Visibility: 15 miles (24 km)
Ceiling: 700 feet AGL
Clouds: broken clouds at 700 feet AGL
overcast cloud deck at 1300 feet AGL
Weather: -DZ  (light drizzle)

METAR text: CYFB 170600Z 15004KT 30SM -DZ OVC008 02/01 A3003 RMK ST8 SLP174
Conditions at: CYFB (FROBISHER/IQALUI, NU, CA) observed 0600 UTC 17 June 2019
Temperature: 2.0°C (36°F)
Dewpoint: 1.0°C (34°F) [RH = 93%]
Pressure (altimeter): 30.03 inches Hg (1017.0 mb)
[Sea-level pressure: 1017.4 mb]
Winds: from the SSE (150 degrees) at 5 MPH (4 knots; 2.1 m/s)
Visibility: 30 miles (48 km)
Ceiling: 800 feet AGL
Clouds: overcast cloud deck at 800 feet AGL
Weather: -DZ  (light drizzle)

METAR text: CYFB 170500Z 15004KT 8SM -DZ BR BKN007 OVC013 02/02 A3004 RMK SF5SC3 SLP175
Conditions at: CYFB (FROBISHER/IQALUI, NU, CA) observed 0500 UTC 17 June 2019
Temperature: 2.0°C (36°F)
Dewpoint: 2.0°C (36°F) [RH = 100%]
Pressure (altimeter): 30.04 inches Hg (1017.4 mb)
[Sea-level pressure: 1017.5 mb]
Winds: from the SSE (150 degrees) at 5 MPH (4 knots; 2.1 m/s)
Visibility: 8 miles (13 km)
Ceiling: 700 feet AGL
Clouds: broken clouds at 700 feet AGL
overcast cloud deck at 1300 feet AGL
Weather: -DZ BR  (light drizzle, mist)

METAR text: CYFB 170400Z 16006KT 6SM -DZ BR OVC007 02/02 A3004 RMK ST8 SLP176
Conditions at: CYFB (FROBISHER/IQALUI, NU, CA) observed 0400 UTC 17 June 2019
Temperature: 2.0°C (36°F)
Dewpoint: 2.0°C (36°F) [RH = 100%]
Pressure (altimeter): 30.04 inches Hg (1017.4 mb)
[Sea-level pressure: 1017.6 mb]
Winds: from the SSE (160 degrees) at 7 MPH (6 knots; 3.1 m/s)
Visibility: 6 miles (10 km)
Ceiling: 700 feet AGL
Clouds: overcast cloud deck at 700 feet AGL
Weather: -DZ BR  (light drizzle, mist)

METAR text: CYFB 170300Z 12003KT 3SM -DZ BR OVC004 02/02 A3005 RMK ST8 SLP179
Conditions at: CYFB (FROBISHER/IQALUI, NU, CA) observed 0300 UTC 17 June 2019
Temperature: 2.0°C (36°F)
Dewpoint: 2.0°C (36°F) [RH = 100%]
Pressure (altimeter): 30.05 inches Hg (1017.7 mb)
[Sea-level pressure: 1017.9 mb]
Winds: from the ESE (120 degrees) at 3 MPH (3 knots; 1.5 m/s)
Visibility: 3 miles ( 5 km)
Ceiling: 400 feet AGL
Clouds: overcast cloud deck at 400 feet AGL
Weather: -DZ BR  (light drizzle, mist)

METAR text: CYFB 170200Z 14005KT 6SM BR OVC005 03/02 A3005 RMK ST8 SLP180
Conditions at: CYFB (FROBISHER/IQALUI, NU, CA) observed 0200 UTC 17 June 2019
Temperature: 3.0°C (37°F)
Dewpoint: 2.0°C (36°F) [RH = 93%]
Pressure (altimeter): 30.05 inches Hg (1017.7 mb)
[Sea-level pressure: 1018.0 mb]
Winds: from the SE (140 degrees) at 6 MPH (5 knots; 2.6 m/s)
Visibility: 6 miles (10 km)
Ceiling: 500 feet AGL
Clouds: overcast cloud deck at 500 feet AGL
Weather: BR  (mist)

METAR text: CYFB 170125Z 15004KT 6SM BR OVC004 02/02 A3005 RMK ST8 SLP179
Conditions at: CYFB (FROBISHER/IQALUI, NU, CA) observed 0125 UTC 17 June 2019
Temperature: 2.0°C (36°F)
Dewpoint: 2.0°C (36°F) [RH = 100%]
Pressure (altimeter): 30.05 inches Hg (1017.7 mb)
[Sea-level pressure: 1017.9 mb]
Winds: from the SSE (150 degrees) at 5 MPH (4 knots; 2.1 m/s)
Visibility: 6 miles (10 km)
Ceiling: 400 feet AGL
Clouds: overcast cloud deck at 400 feet AGL
Weather: BR  (mist)

METAR text: CYFB 170100Z 15005KT 2 1/2SM -RA BR OVC004 03/02 A3005 RMK ST8 SLP179
Conditions at: CYFB (FROBISHER/IQALUI, NU, CA) observed 0100 UTC 17 June 2019
Temperature: 3.0°C (37°F)
Dewpoint: 2.0°C (36°F) [RH = 93%]
Pressure (altimeter): 30.05 inches Hg (1017.7 mb)
[Sea-level pressure: 1017.9 mb]
Winds: from the SSE (150 degrees) at 6 MPH (5 knots; 2.6 m/s)
Visibility: 2.50 miles (4.02 km)
Ceiling: 400 feet AGL
Clouds: overcast cloud deck at 400 feet AGL
Weather: -RA BR  (light rain, mist)

METAR text: CYFB 170048Z 15005KT 3SM -RA BR OVC004 03/02 A3005 RMK ST8 SLP178
Conditions at: CYFB (FROBISHER/IQALUI, NU, CA) observed 0048 UTC 17 June 2019
Temperature: 3.0°C (37°F)
Dewpoint: 2.0°C (36°F) [RH = 93%]
Pressure (altimeter): 30.05 inches Hg (1017.7 mb)
[Sea-level pressure: 1017.8 mb]
Winds: from the SSE (150 degrees) at 6 MPH (5 knots; 2.6 m/s)
Visibility: 3 miles ( 5 km)
Ceiling: 400 feet AGL
Clouds: overcast cloud deck at 400 feet AGL
Weather: -RA BR  (light rain, mist)

METAR text: CYFB 170028Z 13006KT 6SM -RA BR OVC005 03/03 A3005 RMK ST8 SLP178
Conditions at: CYFB (FROBISHER/IQALUI, NU, CA) observed 0028 UTC 17 June 2019
Temperature: 3.0°C (37°F)
Dewpoint: 3.0°C (37°F) [RH = 100%]
Pressure (altimeter): 30.05 inches Hg (1017.7 mb)
[Sea-level pressure: 1017.8 mb]
Winds: from the SE (130 degrees) at 7 MPH (6 knots; 3.1 m/s)
Visibility: 6 miles (10 km)
Ceiling: 500 feet AGL
Clouds: overcast cloud deck at 500 feet AGL
Weather: -RA BR  (light rain, mist)

METAR text: CYFB 170000Z 14004KT 6SM BR OVC006 02/02 A3005 RMK ST8 SLP178
Conditions at: CYFB (FROBISHER/IQALUI, NU, CA) observed 0000 UTC 17 June 2019
Temperature: 2.0°C (36°F)
Dewpoint: 2.0°C (36°F) [RH = 100%]
Pressure (altimeter): 30.05 inches Hg (1017.7 mb)
[Sea-level pressure: 1017.8 mb]
Winds: from the SE (140 degrees) at 5 MPH (4 knots; 2.1 m/s)
Visibility: 6 miles (10 km)
Ceiling: 600 feet AGL
Clouds: overcast cloud deck at 600 feet AGL
Weather: BR  (mist)

METAR text: CYFB 162324Z 14007KT 6SM BR OVC006 02/02 A3004 RMK ST8 SLP177
Conditions at: CYFB (FROBISHER/IQALUI, NU, CA) observed 2324 UTC 16 June 2019
Temperature: 2.0°C (36°F)
Dewpoint: 2.0°C (36°F) [RH = 100%]
Pressure (altimeter): 30.04 inches Hg (1017.4 mb)
[Sea-level pressure: 1017.7 mb]
Winds: from the SE (140 degrees) at 8 MPH (7 knots; 3.6 m/s)
Visibility: 6 miles (10 km)
Ceiling: 600 feet AGL
Clouds: overcast cloud deck at 600 feet AGL
Weather: BR  (mist)

METAR text: CYFB 162300Z 15006KT 20SM OVC008 02/01 A3004 RMK SC8 SLP175
Conditions at: CYFB (FROBISHER/IQALUI, NU, CA) observed 2300 UTC 16 June 2019
Temperature: 2.0°C (36°F)
Dewpoint: 1.0°C (34°F) [RH = 93%]
Pressure (altimeter): 30.04 inches Hg (1017.4 mb)
[Sea-level pressure: 1017.5 mb]
Winds: from the SSE (150 degrees) at 7 MPH (6 knots; 3.1 m/s)
Visibility: 20 miles (32 km)
Ceiling: 800 feet AGL
Clouds: overcast cloud deck at 800 feet AGL
Weather: no significant weather observed at this time

METAR text: CYFB 162211Z 17003KT 130V200 30SM BKN008 OVC022 02/01 A3004 RMK SC5SC3 SLP176
Conditions at: CYFB (FROBISHER/IQALUI, NU, CA) observed 2211 UTC 16 June 2019
Temperature: 2.0°C (36°F)
Dewpoint: 1.0°C (34°F) [RH = 93%]
Pressure (altimeter): 30.04 inches Hg (1017.4 mb)
[Sea-level pressure: 1017.6 mb]
Winds: from the S (170 degrees) at 3 MPH (3 knots; 1.5 m/s)
Visibility: 30 miles (48 km)
Ceiling: 800 feet AGL
Clouds: broken clouds at 800 feet AGL
overcast cloud deck at 2200 feet AGL
Weather: no significant weather observed at this time

METAR text: CYFB 162200Z 18003KT 110V200 30SM SCT008 BKN022 OVC038 03/01 A3004 RMK SC3SC4SC1 SLP175
Conditions at: CYFB (FROBISHER/IQALUI, NU, CA) observed 2200 UTC 16 June 2019
Temperature: 3.0°C (37°F)
Dewpoint: 1.0°C (34°F) [RH = 87%]
Pressure (altimeter): 30.04 inches Hg (1017.4 mb)
[Sea-level pressure: 1017.5 mb]
Winds: from the S (180 degrees) at 3 MPH (3 knots; 1.5 m/s)
Visibility: 30 miles (48 km)
Ceiling: 2200 feet AGL
Clouds: scattered clouds at 800 feet AGL
broken clouds at 2200 feet AGL
overcast cloud deck at 3800 feet AGL
Weather: no significant weather observed at this time

METAR text: CYFB 162100Z 18003KT 140V210 30SM FEW010 BKN023 OVC039 03/01 A3003 RMK SF1SC6SC2 SF TR SLP174
Conditions at: CYFB (FROBISHER/IQALUI, NU, CA) observed 2100 UTC 16 June 2019
Temperature: 3.0°C (37°F)
Dewpoint: 1.0°C (34°F) [RH = 87%]
Pressure (altimeter): 30.03 inches Hg (1017.0 mb)
[Sea-level pressure: 1017.4 mb]
Winds: from the S (180 degrees) at 3 MPH (3 knots; 1.5 m/s)
Visibility: 30 miles (48 km)
Ceiling: 2300 feet AGL
Clouds: few clouds at 1000 feet AGL
broken clouds at 2300 feet AGL
overcast cloud deck at 3900 feet AGL
Weather: no significant weather observed at this time

METAR text: CYFB 162000Z 16008KT 30SM FEW010 BKN026 OVC039 04/02 A3003 RMK SC1ST6SC2 SC TR SLP173
Conditions at: CYFB (FROBISHER/IQALUI, NU, CA) observed 2000 UTC 16 June 2019
Temperature: 4.0°C (39°F)
Dewpoint: 2.0°C (36°F) [RH = 87%]
Pressure (altimeter): 30.03 inches Hg (1017.0 mb)
[Sea-level pressure: 1017.3 mb]
Winds: from the SSE (160 degrees) at 9 MPH (8 knots; 4.1 m/s)
Visibility: 30 miles (48 km)
Ceiling: 2600 feet AGL
Clouds: few clouds at 1000 feet AGL
broken clouds at 2600 feet AGL
overcast cloud deck at 3900 feet AGL
Weather: no significant weather observed at this time

METAR text: CYFB 161900Z 15005KT 30SM FEW010 OVC026 04/02 A3003 RMK SF2SC6 SLP172
Conditions at: CYFB (FROBISHER/IQALUI, NU, CA) observed 1900 UTC 16 June 2019
Temperature: 4.0°C (39°F)
Dewpoint: 2.0°C (36°F) [RH = 87%]
Pressure (altimeter): 30.03 inches Hg (1017.0 mb)
[Sea-level pressure: 1017.2 mb]
Winds: from the SSE (150 degrees) at 6 MPH (5 knots; 2.6 m/s)
Visibility: 30 miles (48 km)
Ceiling: 2600 feet AGL
Clouds: few clouds at 1000 feet AGL
overcast cloud deck at 2600 feet AGL
Weather: no significant weather observed at this time

METAR text: CYFB 161800Z 16006KT 30SM SCT010 BKN023 03/02 A3002 RMK ST3SC4 SLP171
Conditions at: CYFB (FROBISHER/IQALUI, NU, CA) observed 1800 UTC 16 June 2019
Temperature: 3.0°C (37°F)
Dewpoint: 2.0°C (36°F) [RH = 93%]
Pressure (altimeter): 30.02 inches Hg (1016.7 mb)
[Sea-level pressure: 1017.1 mb]
Winds: from the SSE (160 degrees) at 7 MPH (6 knots; 3.1 m/s)
Visibility: 30 miles (48 km)
Ceiling: 2300 feet AGL
Clouds: scattered clouds at 1000 feet AGL
broken clouds at 2300 feet AGL
Weather: no significant weather observed at this time

METAR text: CYFB 161700Z 12004KT 30SM FEW006 SCT010 OVC019 03/01 A3003 RMK SF2ST2SC4 SLP173
Conditions at: CYFB (FROBISHER/IQALUI, NU, CA) observed 1700 UTC 16 June 2019
Temperature: 3.0°C (37°F)
Dewpoint: 1.0°C (34°F) [RH = 87%]
Pressure (altimeter): 30.03 inches Hg (1017.0 mb)
[Sea-level pressure: 1017.3 mb]
Winds: from the ESE (120 degrees) at 5 MPH (4 knots; 2.1 m/s)
Visibility: 30 miles (48 km)
Ceiling: 1900 feet AGL
Clouds: few clouds at 600 feet AGL
scattered clouds at 1000 feet AGL
overcast cloud deck at 1900 feet AGL
Weather: no significant weather observed at this time

METAR text: CYFB 161616Z 14004KT 25SM SCT006 OVC023 03/02 A3003 RMK FG1ST3SC4 SLP172
Conditions at: CYFB (FROBISHER/IQALUI, NU, CA) observed 1616 UTC 16 June 2019
Temperature: 3.0°C (37°F)
Dewpoint: 2.0°C (36°F) [RH = 93%]
Pressure (altimeter): 30.03 inches Hg (1017.0 mb)
[Sea-level pressure: 1017.2 mb]
Winds: from the SE (140 degrees) at 5 MPH (4 knots; 2.1 m/s)
Visibility: 25 miles (40 km)
Ceiling: 2300 feet AGL
Clouds: scattered clouds at 600 feet AGL
overcast cloud deck at 2300 feet AGL
Weather: no significant weather observed at this time

METAR text: CYFB 161600Z 15003KT 080V170 20SM BKN006 OVC024 03/02 A3003 RMK FG1ST5SC2 SLP173
Conditions at: CYFB (FROBISHER/IQALUI, NU, CA) observed 1600 UTC 16 June 2019
Temperature: 3.0°C (37°F)
Dewpoint: 2.0°C (36°F) [RH = 93%]
Pressure (altimeter): 30.03 inches Hg (1017.0 mb)
[Sea-level pressure: 1017.3 mb]
Winds: from the SSE (150 degrees) at 3 MPH (3 knots; 1.5 m/s)
Visibility: 20 miles (32 km)
Ceiling: 600 feet AGL
Clouds: broken clouds at 600 feet AGL
overcast cloud deck at 2400 feet AGL
Weather: no significant weather observed at this time

METAR text: CYFB 161550Z 13005KT 20SM BKN006 OVC024 03/02 A3003 RMK FG1ST5SC2 SLP172
Conditions at: CYFB (FROBISHER/IQALUI, NU, CA) observed 1550 UTC 16 June 2019
Temperature: 3.0°C (37°F)
Dewpoint: 2.0°C (36°F) [RH = 93%]
Pressure (altimeter): 30.03 inches Hg (1017.0 mb)
[Sea-level pressure: 1017.2 mb]
Winds: from the SE (130 degrees) at 6 MPH (5 knots; 2.6 m/s)
Visibility: 20 miles (32 km)
Ceiling: 600 feet AGL
Clouds: broken clouds at 600 feet AGL
overcast cloud deck at 2400 feet AGL
Weather: no significant weather observed at this time

Forecast for: AMD
Text: TAF AMD CYFB 180208Z 1802/1824 VRB03KT P6SM SCT050
Forecast period: 0200 UTC 18 June 2019 to 0000 UTC 19 June 2019
Forecast type: FROM: standard forecast or significant change
Winds: variable direction winds at 3 MPH (3 knots; 1.5 m/s)
Visibility: 6 or more miles 10+ km)
Ceiling: at least 12,000 feet AGL
Clouds: scattered clouds at 5000 feet AGL
Weather: no significant weather forecast for this period
Text: PROB30 1809/1815 1SM -DZ BR VV005 RMK NXT FCST BY 180600Z
Forecast period: 0900 to 1500 UTC 18 June 2019
Forecast type: PROBABLE: 30 percent likelihood of the following during this time
Visibility: 1.00 miles (1.61 km)
Ceiling: indefinite ceiling with vertical visibility of 500 feet AGL
Clouds: obscured sky
Weather: -DZ BR  (light drizzle, mist)